ETD35G OPKC-OMAA
Flight info
| Callsign | ETD35G |
|---|---|
| Flight time | 2h 12m |
| Altitude | 380 |
| Route | PLANNED OPTIMUM FLIGHT LEVEL |
| Aircraft | A20N/M-V/N |
Departure
| Time | 2026-05-08 13:24 |
|---|---|
| Airport | Jinnah International Airport (OPKC) |
Arrival
| Time | 2026-05-08 15:36 |
|---|---|
| Airport | Zayed International Airport (OMAA) |
| Time | Latitude | Longitude | Altitude | Speed | Heading |
|---|---|---|---|---|---|
| 2026-05-08 12:53 | 24.90194 | 67.16082 | 84 ft | 0 kts | 164° |
| 2026-05-08 13:11 | 24.90197 | 67.16081 | 93 ft | 1 kts | 164° |
| 2026-05-08 13:11 | 24.90204 | 67.16078 | 93 ft | 1 kts | 164° |
| 2026-05-08 13:11 | 24.90211 | 67.16076 | 91 ft | 1 kts | 164° |
| 2026-05-08 13:12 | 24.90219 | 67.16074 | 91 ft | 1 kts | 164° |
| 2026-05-08 13:12 | 24.90232 | 67.16070 | 90 ft | 2 kts | 164° |
| 2026-05-08 13:12 | 24.90246 | 67.16065 | 90 ft | 2 kts | 164° |
| 2026-05-08 13:12 | 24.90261 | 67.16059 | 90 ft | 2 kts | 127° |
| 2026-05-08 13:13 | 24.90265 | 67.16051 | 90 ft | 0 kts | 90° |
| 2026-05-08 13:16 | 24.90268 | 67.16057 | 92 ft | 1 kts | 51° |
| 2026-05-08 13:16 | 24.90278 | 67.16058 | 92 ft | 3 kts | 14° |
| 2026-05-08 13:17 | 24.90311 | 67.16076 | 90 ft | 7 kts | 42° |
| 2026-05-08 13:17 | 24.90333 | 67.16130 | 91 ft | 9 kts | 73° |
| 2026-05-08 13:17 | 24.90352 | 67.16203 | 91 ft | 11 kts | 75° |
| 2026-05-08 13:17 | 24.90362 | 67.16243 | 92 ft | 6 kts | 75° |
| 2026-05-08 13:18 | 24.90375 | 67.16295 | 93 ft | 8 kts | 75° |
| 2026-05-08 13:18 | 24.90392 | 67.16363 | 93 ft | 10 kts | 75° |
| 2026-05-08 13:18 | 24.90412 | 67.16446 | 93 ft | 12 kts | 76° |
| 2026-05-08 13:18 | 24.90436 | 67.16543 | 94 ft | 14 kts | 75° |
| 2026-05-08 13:19 | 24.90463 | 67.16653 | 95 ft | 16 kts | 75° |
| 2026-05-08 13:19 | 24.90485 | 67.16741 | 96 ft | 12 kts | 75° |
| 2026-05-08 13:19 | 24.90509 | 67.16837 | 95 ft | 14 kts | 72° |
| 2026-05-08 13:19 | 24.90535 | 67.16931 | 96 ft | 12 kts | 75° |
| 2026-05-08 13:20 | 24.90555 | 67.17010 | 96 ft | 8 kts | 73° |
| 2026-05-08 13:20 | 24.90573 | 67.17077 | 98 ft | 10 kts | 73° |
| 2026-05-08 13:20 | 24.90593 | 67.17158 | 97 ft | 12 kts | 75° |
| 2026-05-08 13:20 | 24.90614 | 67.17242 | 98 ft | 7 kts | 75° |
| 2026-05-08 13:21 | 24.90629 | 67.17305 | 98 ft | 10 kts | 75° |
| 2026-05-08 13:21 | 24.90650 | 67.17385 | 98 ft | 12 kts | 66° |
| 2026-05-08 13:21 | 24.90717 | 67.17442 | 98 ft | 13 kts | 29° |
| 2026-05-08 13:21 | 24.90800 | 67.17489 | 99 ft | 10 kts | 16° |
| 2026-05-08 13:22 | 24.90860 | 67.17459 | 99 ft | 11 kts | 298° |
| 2026-05-08 13:22 | 24.90860 | 67.17409 | 99 ft | 0 kts | 256° |
| 2026-05-08 13:23 | 24.90858 | 67.17401 | 100 ft | 4 kts | 256° |
| 2026-05-08 13:23 | 24.90779 | 67.17091 | 98 ft | 83 kts | 254° |
| 2026-05-08 13:23 | 24.90556 | 67.16217 | 90 ft | 150 kts | 254° |
| 2026-05-08 13:23 | 24.90231 | 67.14934 | 258 ft | 187 kts | 255° |
| 2026-05-08 13:24 | 24.89858 | 67.13532 | 858 ft | 192 kts | 248° |
| 2026-05-08 13:24 | 24.89137 | 67.12374 | 1875 ft | 177 kts | 226° |
| 2026-05-08 13:24 | 24.88218 | 67.11420 | 2497 ft | 191 kts | 223° |
| 2026-05-08 13:24 | 24.87197 | 67.10373 | 3000 ft | 208 kts | 223° |
| 2026-05-08 13:25 | 24.86119 | 67.09293 | 3746 ft | 215 kts | 222° |
| 2026-05-08 13:25 | 24.84959 | 67.08075 | 4104 ft | 240 kts | 226° |
| 2026-05-08 13:25 | 24.83811 | 67.06712 | 4930 ft | 244 kts | 228° |
| 2026-05-08 13:25 | 24.82672 | 67.05317 | 5796 ft | 247 kts | 228° |
| 2026-05-08 13:26 | 24.81515 | 67.03905 | 6634 ft | 250 kts | 228° |
| 2026-05-08 13:26 | 24.80336 | 67.02482 | 7466 ft | 253 kts | 227° |
| 2026-05-08 13:26 | 24.79137 | 67.01047 | 8285 ft | 256 kts | 228° |
| 2026-05-08 13:26 | 24.78205 | 66.99383 | 9049 ft | 259 kts | 253° |
| 2026-05-08 13:27 | 24.78066 | 66.97412 | 9805 ft | 262 kts | 276° |
| 2026-05-08 13:27 | 24.78285 | 66.95347 | 10206 ft | 283 kts | 277° |
| 2026-05-08 13:27 | 24.78558 | 66.93117 | 10488 ft | 306 kts | 277° |
| 2026-05-08 13:27 | 24.78846 | 66.90710 | 10732 ft | 328 kts | 277° |
| 2026-05-08 13:28 | 24.79134 | 66.88170 | 11280 ft | 338 kts | 277° |
| 2026-05-08 13:28 | 24.79415 | 66.85593 | 12034 ft | 341 kts | 277° |
| 2026-05-08 13:28 | 24.79693 | 66.83022 | 12756 ft | 345 kts | 278° |
| 2026-05-08 13:28 | 24.80365 | 66.80446 | 13451 ft | 349 kts | 295° |
| 2026-05-08 13:29 | 24.81702 | 66.78216 | 14135 ft | 353 kts | 313° |
| 2026-05-08 13:29 | 24.83470 | 66.76325 | 14804 ft | 356 kts | 316° |
| 2026-05-08 13:29 | 24.85278 | 66.74439 | 15459 ft | 360 kts | 316° |
| 2026-05-08 13:29 | 24.87103 | 66.72528 | 16087 ft | 364 kts | 316° |
| 2026-05-08 13:30 | 24.88916 | 66.70623 | 16732 ft | 367 kts | 316° |
| 2026-05-08 13:30 | 24.90791 | 66.68648 | 17335 ft | 370 kts | 316° |
| 2026-05-08 13:30 | 24.92634 | 66.66704 | 17916 ft | 374 kts | 316° |
| 2026-05-08 13:30 | 24.94544 | 66.64687 | 18506 ft | 377 kts | 316° |
| 2026-05-08 13:31 | 24.96421 | 66.62704 | 19061 ft | 380 kts | 316° |
| 2026-05-08 13:31 | 24.98336 | 66.60680 | 19619 ft | 383 kts | 316° |
| 2026-05-08 13:31 | 25.00270 | 66.58635 | 20162 ft | 387 kts | 316° |
| 2026-05-08 13:31 | 25.02218 | 66.56575 | 20693 ft | 390 kts | 316° |
| 2026-05-08 13:32 | 25.04139 | 66.54453 | 21204 ft | 393 kts | 310° |
| 2026-05-08 13:32 | 25.05692 | 66.51965 | 21698 ft | 396 kts | 297° |
| 2026-05-08 13:32 | 25.06730 | 66.49153 | 22183 ft | 398 kts | 285° |
| 2026-05-08 13:32 | 25.07389 | 66.46173 | 22671 ft | 401 kts | 283° |
| 2026-05-08 13:33 | 25.08046 | 66.43171 | 23137 ft | 404 kts | 283° |
| 2026-05-08 13:33 | 25.08714 | 66.40148 | 23601 ft | 407 kts | 283° |
| 2026-05-08 13:33 | 25.09388 | 66.37104 | 24052 ft | 410 kts | 283° |
| 2026-05-08 13:33 | 25.10067 | 66.34037 | 24501 ft | 413 kts | 283° |
| 2026-05-08 13:34 | 25.10749 | 66.30951 | 24924 ft | 416 kts | 283° |
| 2026-05-08 13:34 | 25.11436 | 66.27843 | 25340 ft | 418 kts | 283° |
| 2026-05-08 13:34 | 25.12126 | 66.24714 | 25743 ft | 421 kts | 283° |
| 2026-05-08 13:34 | 25.12819 | 66.21568 | 26133 ft | 423 kts | 283° |
| 2026-05-08 13:35 | 25.13516 | 66.18399 | 26512 ft | 426 kts | 283° |
| 2026-05-08 13:35 | 25.14216 | 66.15214 | 26884 ft | 428 kts | 283° |
| 2026-05-08 13:35 | 25.14919 | 66.12009 | 27238 ft | 431 kts | 283° |
| 2026-05-08 13:35 | 25.15626 | 66.08788 | 27580 ft | 433 kts | 283° |
| 2026-05-08 13:36 | 25.16336 | 66.05546 | 27915 ft | 435 kts | 283° |
| 2026-05-08 13:36 | 25.17048 | 66.02289 | 28232 ft | 438 kts | 283° |
| 2026-05-08 13:36 | 25.17763 | 65.99017 | 28541 ft | 440 kts | 283° |
| 2026-05-08 13:36 | 25.18482 | 65.95727 | 28840 ft | 442 kts | 283° |
| 2026-05-08 13:37 | 25.19203 | 65.92422 | 29128 ft | 444 kts | 283° |
| 2026-05-08 13:37 | 25.19926 | 65.89102 | 29406 ft | 446 kts | 283° |
| 2026-05-08 13:37 | 25.20652 | 65.85766 | 29679 ft | 448 kts | 283° |
| 2026-05-08 13:37 | 25.21380 | 65.82414 | 29952 ft | 450 kts | 283° |
| 2026-05-08 13:38 | 25.22110 | 65.79051 | 30223 ft | 452 kts | 283° |
| 2026-05-08 13:38 | 25.22844 | 65.75668 | 30492 ft | 454 kts | 283° |
| 2026-05-08 13:38 | 25.23578 | 65.72278 | 30758 ft | 455 kts | 283° |
| 2026-05-08 13:38 | 25.24316 | 65.68865 | 31024 ft | 457 kts | 283° |
| 2026-05-08 13:39 | 25.25054 | 65.65450 | 31338 ft | 457 kts | 283° |
| 2026-05-08 13:39 | 25.25791 | 65.62035 | 31681 ft | 457 kts | 283° |
| 2026-05-08 13:39 | 25.26516 | 65.58669 | 32016 ft | 456 kts | 283° |
| 2026-05-08 13:39 | 25.27249 | 65.55265 | 32343 ft | 455 kts | 283° |
| 2026-05-08 13:40 | 25.27980 | 65.51865 | 32658 ft | 455 kts | 283° |
| 2026-05-08 13:40 | 25.28710 | 65.48468 | 32957 ft | 454 kts | 283° |
| 2026-05-08 13:40 | 25.29437 | 65.45077 | 33259 ft | 453 kts | 283° |
| 2026-05-08 13:40 | 25.30163 | 65.41688 | 33548 ft | 453 kts | 283° |
| 2026-05-08 13:41 | 25.30887 | 65.38306 | 33815 ft | 452 kts | 283° |
| 2026-05-08 13:41 | 25.31610 | 65.34925 | 34080 ft | 452 kts | 283° |
| 2026-05-08 13:41 | 25.32330 | 65.31551 | 34334 ft | 451 kts | 283° |
| 2026-05-08 13:41 | 25.33049 | 65.28179 | 34584 ft | 451 kts | 283° |
| 2026-05-08 13:42 | 25.33768 | 65.24807 | 34814 ft | 450 kts | 283° |
| 2026-05-08 13:42 | 25.34484 | 65.21439 | 35008 ft | 451 kts | 283° |
| 2026-05-08 13:42 | 25.35203 | 65.18058 | 35155 ft | 452 kts | 283° |
| 2026-05-08 13:42 | 25.35920 | 65.14677 | 35383 ft | 451 kts | 283° |
| 2026-05-08 13:43 | 25.36636 | 65.11301 | 35618 ft | 450 kts | 283° |
| 2026-05-08 13:43 | 25.37349 | 65.07934 | 35837 ft | 449 kts | 283° |
| 2026-05-08 13:43 | 25.38060 | 65.04570 | 36017 ft | 449 kts | 283° |
| 2026-05-08 13:43 | 25.38771 | 65.01207 | 36221 ft | 448 kts | 283° |
| 2026-05-08 13:44 | 25.39478 | 64.97852 | 36417 ft | 448 kts | 283° |
| 2026-05-08 13:44 | 25.40185 | 64.94499 | 36578 ft | 448 kts | 283° |
| 2026-05-08 13:44 | 25.40891 | 64.91146 | 36734 ft | 447 kts | 283° |
| 2026-05-08 13:44 | 25.41469 | 64.87768 | 36868 ft | 447 kts | 275° |
| 2026-05-08 13:45 | 25.41567 | 64.84334 | 36983 ft | 447 kts | 266° |
| 2026-05-08 13:45 | 25.41166 | 64.80925 | 37102 ft | 447 kts | 257° |
| 2026-05-08 13:45 | 25.40377 | 64.77599 | 37227 ft | 447 kts | 255° |
| 2026-05-08 13:45 | 25.39567 | 64.74278 | 37354 ft | 447 kts | 255° |
| 2026-05-08 13:46 | 25.38766 | 64.70955 | 37479 ft | 447 kts | 255° |
| 2026-05-08 13:46 | 25.38238 | 64.68757 | 37559 ft | 447 kts | 255° |
| 2026-05-08 13:46 | 25.37439 | 64.65428 | 37674 ft | 447 kts | 255° |
| 2026-05-08 13:46 | 25.36641 | 64.62105 | 37785 ft | 447 kts | 255° |
| 2026-05-08 13:47 | 25.35841 | 64.58782 | 37897 ft | 447 kts | 255° |
| 2026-05-08 13:47 | 25.35041 | 64.55462 | 37963 ft | 447 kts | 255° |
| 2026-05-08 13:47 | 25.33437 | 64.48820 | 38000 ft | 447 kts | 255° |
| 2026-05-08 13:48 | 25.31831 | 64.42193 | 38000 ft | 447 kts | 255° |
| 2026-05-08 13:48 | 25.30219 | 64.35559 | 38000 ft | 447 kts | 255° |
| 2026-05-08 13:49 | 25.28605 | 64.28929 | 38000 ft | 447 kts | 255° |
| 2026-05-08 13:49 | 25.26989 | 64.22308 | 37999 ft | 446 kts | 255° |
| 2026-05-08 13:50 | 25.25371 | 64.15689 | 37998 ft | 446 kts | 255° |
| 2026-05-08 13:50 | 25.23750 | 64.09074 | 37997 ft | 446 kts | 255° |
| 2026-05-08 13:51 | 25.22127 | 64.02462 | 37996 ft | 446 kts | 255° |
| 2026-05-08 13:51 | 25.20501 | 63.95854 | 37997 ft | 446 kts | 255° |
| 2026-05-08 13:52 | 25.18872 | 63.89245 | 37997 ft | 446 kts | 255° |
| 2026-05-08 13:52 | 25.17240 | 63.82640 | 37996 ft | 446 kts | 255° |
| 2026-05-08 13:53 | 25.15605 | 63.76034 | 37997 ft | 446 kts | 255° |
| 2026-05-08 13:53 | 25.13967 | 63.69428 | 37998 ft | 446 kts | 255° |
| 2026-05-08 13:54 | 25.12337 | 63.62869 | 37999 ft | 446 kts | 255° |
| 2026-05-08 13:54 | 25.10691 | 63.56262 | 38000 ft | 447 kts | 255° |
| 2026-05-08 13:55 | 25.09043 | 63.49657 | 38001 ft | 447 kts | 255° |
| 2026-05-08 13:56 | 25.06564 | 63.39747 | 38002 ft | 447 kts | 255° |
| 2026-05-08 13:56 | 25.04906 | 63.33139 | 38003 ft | 447 kts | 255° |
| 2026-05-08 13:57 | 25.03246 | 63.26535 | 38004 ft | 447 kts | 255° |
| 2026-05-08 13:57 | 25.01583 | 63.19929 | 38004 ft | 447 kts | 254° |
| 2026-05-08 13:58 | 24.99917 | 63.13328 | 38004 ft | 447 kts | 254° |
| 2026-05-08 13:58 | 24.98247 | 63.06724 | 38004 ft | 447 kts | 254° |
| 2026-05-08 13:59 | 24.96575 | 63.00126 | 38004 ft | 447 kts | 254° |
| 2026-05-08 13:59 | 24.94899 | 62.93527 | 38004 ft | 447 kts | 254° |
| 2026-05-08 14:00 | 24.93222 | 62.86933 | 38002 ft | 447 kts | 254° |
| 2026-05-08 14:00 | 24.91541 | 62.80343 | 38002 ft | 447 kts | 254° |
| 2026-05-08 14:01 | 24.89859 | 62.73756 | 38001 ft | 447 kts | 254° |
| 2026-05-08 14:01 | 24.88174 | 62.67172 | 38001 ft | 447 kts | 254° |
| 2026-05-08 14:02 | 24.86486 | 62.60593 | 38000 ft | 446 kts | 254° |
| 2026-05-08 14:02 | 24.84808 | 62.54061 | 38000 ft | 446 kts | 254° |
| 2026-05-08 14:03 | 24.83115 | 62.47486 | 37999 ft | 446 kts | 254° |
| 2026-05-08 14:03 | 24.81420 | 62.40913 | 37999 ft | 446 kts | 254° |
| 2026-05-08 14:04 | 24.79721 | 62.34343 | 37999 ft | 446 kts | 254° |
| 2026-05-08 14:04 | 24.78020 | 62.27773 | 37998 ft | 446 kts | 254° |
| 2026-05-08 14:05 | 24.76316 | 62.21209 | 37999 ft | 446 kts | 254° |
| 2026-05-08 14:05 | 24.74609 | 62.14644 | 37999 ft | 446 kts | 254° |
| 2026-05-08 14:06 | 24.72898 | 62.08077 | 38000 ft | 446 kts | 254° |
| 2026-05-08 14:06 | 24.71185 | 62.01513 | 38000 ft | 446 kts | 254° |
| 2026-05-08 14:07 | 24.69469 | 61.94951 | 38000 ft | 447 kts | 254° |
| 2026-05-08 14:07 | 24.67749 | 61.88389 | 38001 ft | 447 kts | 254° |
| 2026-05-08 14:08 | 24.66027 | 61.81828 | 38001 ft | 447 kts | 254° |
| 2026-05-08 14:08 | 24.64301 | 61.75266 | 38002 ft | 447 kts | 254° |
| 2026-05-08 14:09 | 24.62573 | 61.68710 | 38002 ft | 447 kts | 254° |
| 2026-05-08 14:09 | 24.60840 | 61.62150 | 38002 ft | 447 kts | 254° |
| 2026-05-08 14:10 | 24.59106 | 61.55594 | 38002 ft | 447 kts | 254° |
| 2026-05-08 14:10 | 24.57368 | 61.49041 | 38002 ft | 447 kts | 253° |
| 2026-05-08 14:11 | 24.55640 | 61.42531 | 38002 ft | 447 kts | 253° |
| 2026-05-08 14:11 | 24.53897 | 61.35982 | 38002 ft | 447 kts | 253° |
| 2026-05-08 14:12 | 24.52151 | 61.29432 | 38002 ft | 447 kts | 253° |
| 2026-05-08 14:12 | 24.50402 | 61.22887 | 38002 ft | 447 kts | 253° |
| 2026-05-08 14:13 | 24.48651 | 61.16343 | 38002 ft | 447 kts | 253° |
| 2026-05-08 14:13 | 24.46898 | 61.09802 | 38001 ft | 447 kts | 253° |
| 2026-05-08 14:14 | 24.45142 | 61.03265 | 38000 ft | 447 kts | 253° |
| 2026-05-08 14:14 | 24.43382 | 60.96726 | 38000 ft | 447 kts | 253° |
| 2026-05-08 14:15 | 24.41621 | 60.90194 | 38001 ft | 446 kts | 253° |
| 2026-05-08 14:15 | 24.39856 | 60.83662 | 38000 ft | 446 kts | 253° |
| 2026-05-08 14:16 | 24.38089 | 60.77133 | 38000 ft | 446 kts | 253° |
| 2026-05-08 14:16 | 24.36319 | 60.70604 | 38000 ft | 446 kts | 253° |
| 2026-05-08 14:17 | 24.34546 | 60.64079 | 38000 ft | 446 kts | 253° |
| 2026-05-08 14:17 | 24.32771 | 60.57556 | 38000 ft | 446 kts | 253° |
| 2026-05-08 14:18 | 24.30992 | 60.51032 | 38000 ft | 447 kts | 253° |
| 2026-05-08 14:18 | 24.29211 | 60.44513 | 38000 ft | 447 kts | 253° |
| 2026-05-08 14:19 | 24.27428 | 60.37996 | 38000 ft | 447 kts | 253° |
| 2026-05-08 14:19 | 24.25640 | 60.31475 | 38001 ft | 447 kts | 253° |
| 2026-05-08 14:20 | 24.23851 | 60.24959 | 38000 ft | 447 kts | 253° |
| 2026-05-08 14:20 | 24.22057 | 60.18442 | 38001 ft | 447 kts | 253° |
| 2026-05-08 14:21 | 24.20262 | 60.11931 | 38001 ft | 447 kts | 253° |
| 2026-05-08 14:21 | 24.18475 | 60.05460 | 38001 ft | 447 kts | 253° |
| 2026-05-08 14:22 | 24.16675 | 59.98954 | 38001 ft | 447 kts | 253° |
| 2026-05-08 14:22 | 24.14870 | 59.92443 | 38001 ft | 447 kts | 253° |
| 2026-05-08 14:23 | 24.13064 | 59.85937 | 38002 ft | 447 kts | 253° |
| 2026-05-08 14:23 | 24.11255 | 59.79434 | 38002 ft | 447 kts | 253° |
| 2026-05-08 14:24 | 24.09442 | 59.72929 | 38001 ft | 447 kts | 253° |
| 2026-05-08 14:24 | 24.07628 | 59.66430 | 38001 ft | 447 kts | 253° |
| 2026-05-08 14:25 | 24.05809 | 59.59928 | 38001 ft | 447 kts | 253° |
| 2026-05-08 14:25 | 24.03988 | 59.53430 | 38001 ft | 447 kts | 253° |
| 2026-05-08 14:26 | 24.02165 | 59.46936 | 38001 ft | 447 kts | 253° |
| 2026-05-08 14:26 | 24.00340 | 59.40443 | 38001 ft | 447 kts | 253° |
| 2026-05-08 14:27 | 23.98512 | 59.33952 | 38001 ft | 447 kts | 253° |
| 2026-05-08 14:27 | 23.96683 | 59.27462 | 38001 ft | 447 kts | 253° |
| 2026-05-08 14:28 | 23.94852 | 59.20973 | 38001 ft | 447 kts | 253° |
| 2026-05-08 14:28 | 23.93018 | 59.14488 | 38001 ft | 447 kts | 253° |
| 2026-05-08 14:29 | 23.91639 | 59.07878 | 37999 ft | 446 kts | 258° |
| 2026-05-08 14:29 | 23.90417 | 59.01228 | 37999 ft | 446 kts | 258° |
| 2026-05-08 14:30 | 23.89181 | 58.94629 | 37999 ft | 446 kts | 258° |
| 2026-05-08 14:30 | 23.87921 | 58.87988 | 38000 ft | 446 kts | 258° |
| 2026-05-08 14:30 | 23.87289 | 58.84662 | 37890 ft | 447 kts | 258° |
| 2026-05-08 14:31 | 23.86655 | 58.81337 | 37543 ft | 447 kts | 258° |
| 2026-05-08 14:31 | 23.86022 | 58.78014 | 37170 ft | 446 kts | 258° |
| 2026-05-08 14:31 | 23.85391 | 58.74707 | 36796 ft | 444 kts | 258° |
| 2026-05-08 14:32 | 23.84119 | 58.68059 | 36051 ft | 445 kts | 258° |
| 2026-05-08 14:32 | 23.83495 | 58.64797 | 35679 ft | 445 kts | 258° |
| 2026-05-08 14:32 | 23.82851 | 58.61439 | 35301 ft | 446 kts | 258° |
| 2026-05-08 14:32 | 23.82222 | 58.58163 | 34932 ft | 447 kts | 258° |
| 2026-05-08 14:33 | 23.81583 | 58.54839 | 34558 ft | 448 kts | 258° |
| 2026-05-08 14:33 | 23.80942 | 58.51512 | 34185 ft | 448 kts | 258° |
| 2026-05-08 14:33 | 23.80300 | 58.48179 | 33812 ft | 449 kts | 258° |
| 2026-05-08 14:33 | 23.79831 | 58.45749 | 33539 ft | 450 kts | 258° |
| 2026-05-08 14:53 | 23.79638 | 58.44749 | 33453 ft | 446 kts | 258° |
| 2026-05-08 14:53 | 23.79030 | 58.41600 | 33633 ft | 393 kts | 258° |
| 2026-05-08 14:54 | 23.78502 | 58.38871 | 32917 ft | 356 kts | 258° |
| 2026-05-08 14:54 | 23.78031 | 58.36278 | 32022 ft | 338 kts | 259° |
| 2026-05-08 14:54 | 23.77621 | 58.33745 | 31095 ft | 345 kts | 261° |
| 2026-05-08 14:54 | 23.77245 | 58.31110 | 30171 ft | 357 kts | 262° |
| 2026-05-08 14:55 | 23.76755 | 58.28409 | 29276 ft | 369 kts | 256° |
| 2026-05-08 14:55 | 23.76112 | 58.25623 | 28796 ft | 387 kts | 256° |
| 2026-05-08 14:55 | 23.75451 | 58.22721 | 28686 ft | 401 kts | 256° |
| 2026-05-08 14:55 | 23.74814 | 58.19742 | 28589 ft | 416 kts | 257° |
| 2026-05-08 14:56 | 23.74179 | 58.16612 | 28474 ft | 430 kts | 258° |
| 2026-05-08 14:56 | 23.73542 | 58.13381 | 28369 ft | 440 kts | 258° |
| 2026-05-08 14:56 | 23.72904 | 58.10115 | 28254 ft | 439 kts | 258° |
| 2026-05-08 14:56 | 23.72270 | 58.06865 | 28144 ft | 437 kts | 258° |
| 2026-05-08 14:57 | 23.71638 | 58.03627 | 28035 ft | 436 kts | 258° |
| 2026-05-08 14:57 | 23.70370 | 57.97155 | 28001 ft | 436 kts | 258° |
| 2026-05-08 14:58 | 23.70069 | 57.90571 | 28002 ft | 436 kts | 277° |
| 2026-05-08 14:58 | 23.71448 | 57.84133 | 27997 ft | 436 kts | 285° |
| 2026-05-08 14:59 | 23.73038 | 57.77742 | 28000 ft | 436 kts | 285° |
| 2026-05-08 14:59 | 23.75409 | 57.68150 | 28000 ft | 436 kts | 285° |
| 2026-05-08 15:00 | 23.76197 | 57.64953 | 28000 ft | 436 kts | 285° |
| 2026-05-08 15:00 | 23.76986 | 57.61753 | 28003 ft | 436 kts | 285° |
| 2026-05-08 15:00 | 23.78561 | 57.55355 | 27999 ft | 436 kts | 285° |
| 2026-05-08 15:01 | 23.79348 | 57.52156 | 28000 ft | 436 kts | 285° |
| 2026-05-08 15:01 | 23.80135 | 57.48953 | 27886 ft | 437 kts | 285° |
| 2026-05-08 15:01 | 23.80920 | 57.45754 | 27538 ft | 435 kts | 285° |
| 2026-05-08 15:01 | 23.81699 | 57.42575 | 27163 ft | 432 kts | 285° |
| 2026-05-08 15:02 | 23.82471 | 57.39425 | 26789 ft | 428 kts | 285° |
| 2026-05-08 15:02 | 23.83236 | 57.36297 | 26414 ft | 425 kts | 285° |
| 2026-05-08 15:02 | 23.83997 | 57.33184 | 26035 ft | 423 kts | 285° |
| 2026-05-08 15:02 | 23.84753 | 57.30088 | 25665 ft | 421 kts | 285° |
| 2026-05-08 15:03 | 23.85505 | 57.27008 | 25292 ft | 419 kts | 285° |
| 2026-05-08 15:03 | 23.86251 | 57.23945 | 24915 ft | 416 kts | 285° |
| 2026-05-08 15:03 | 23.86993 | 57.20899 | 24541 ft | 414 kts | 285° |
| 2026-05-08 15:03 | 23.87729 | 57.17873 | 24165 ft | 411 kts | 285° |
| 2026-05-08 15:04 | 23.88462 | 57.14861 | 23789 ft | 409 kts | 285° |
| 2026-05-08 15:04 | 23.89188 | 57.11870 | 23416 ft | 407 kts | 285° |
| 2026-05-08 15:04 | 23.89910 | 57.08893 | 23041 ft | 404 kts | 285° |
| 2026-05-08 15:04 | 23.90629 | 57.05930 | 22666 ft | 402 kts | 285° |
| 2026-05-08 15:05 | 23.91342 | 57.02985 | 22291 ft | 400 kts | 284° |
| 2026-05-08 15:05 | 23.92051 | 57.00056 | 21919 ft | 397 kts | 284° |
| 2026-05-08 15:05 | 23.92754 | 56.97147 | 21541 ft | 395 kts | 284° |
| 2026-05-08 15:05 | 23.93458 | 56.94251 | 21166 ft | 393 kts | 285° |
| 2026-05-08 15:06 | 23.94171 | 56.91375 | 20791 ft | 391 kts | 285° |
| 2026-05-08 15:06 | 23.94883 | 56.88516 | 20416 ft | 389 kts | 285° |
| 2026-05-08 15:06 | 23.95589 | 56.85671 | 20032 ft | 387 kts | 285° |
| 2026-05-08 15:06 | 23.96291 | 56.82840 | 19553 ft | 385 kts | 285° |
| 2026-05-08 15:07 | 23.96985 | 56.80027 | 19051 ft | 381 kts | 285° |
| 2026-05-08 15:07 | 23.97671 | 56.77245 | 18550 ft | 377 kts | 285° |
| 2026-05-08 15:07 | 23.98350 | 56.74484 | 18052 ft | 374 kts | 285° |
| 2026-05-08 15:07 | 23.99025 | 56.71738 | 17551 ft | 374 kts | 285° |
| 2026-05-08 15:08 | 23.99697 | 56.69004 | 17052 ft | 371 kts | 285° |
| 2026-05-08 15:08 | 24.00139 | 56.67206 | 16728 ft | 369 kts | 285° |
| 2026-05-08 15:08 | 24.01018 | 56.63621 | 16285 ft | 359 kts | 285° |
| 2026-05-08 15:08 | 24.01670 | 56.60961 | 16178 ft | 367 kts | 285° |
| 2026-05-08 15:09 | 24.02332 | 56.58260 | 16080 ft | 367 kts | 285° |
| 2026-05-08 15:09 | 24.02988 | 56.55578 | 16004 ft | 364 kts | 285° |
| 2026-05-08 15:09 | 24.03642 | 56.52905 | 16000 ft | 365 kts | 285° |
| 2026-05-08 15:09 | 24.04297 | 56.50222 | 16000 ft | 365 kts | 285° |
| 2026-05-08 15:10 | 24.04954 | 56.47533 | 16000 ft | 366 kts | 285° |
| 2026-05-08 15:10 | 24.05612 | 56.44836 | 16001 ft | 368 kts | 285° |
| 2026-05-08 15:10 | 24.06270 | 56.42136 | 16000 ft | 367 kts | 285° |
| 2026-05-08 15:10 | 24.06926 | 56.39440 | 16000 ft | 367 kts | 285° |
| 2026-05-08 15:11 | 24.07574 | 56.36778 | 16000 ft | 368 kts | 285° |
| 2026-05-08 15:11 | 24.08232 | 56.34073 | 16000 ft | 368 kts | 285° |
| 2026-05-08 15:11 | 24.08891 | 56.31360 | 16000 ft | 369 kts | 285° |
| 2026-05-08 15:11 | 24.09549 | 56.28648 | 16001 ft | 369 kts | 285° |
| 2026-05-08 15:12 | 24.10205 | 56.25943 | 16000 ft | 367 kts | 285° |
| 2026-05-08 15:12 | 24.10859 | 56.23243 | 16000 ft | 367 kts | 285° |
| 2026-05-08 15:12 | 24.11512 | 56.20545 | 16000 ft | 367 kts | 284° |
| 2026-05-08 15:12 | 24.12165 | 56.17847 | 15995 ft | 367 kts | 284° |
| 2026-05-08 15:13 | 24.12820 | 56.15139 | 15780 ft | 369 kts | 284° |
| 2026-05-08 15:13 | 24.13473 | 56.12434 | 15379 ft | 366 kts | 284° |
| 2026-05-08 15:13 | 24.14118 | 56.09762 | 14984 ft | 360 kts | 284° |
| 2026-05-08 15:13 | 24.14752 | 56.07132 | 14585 ft | 356 kts | 284° |
| 2026-05-08 15:14 | 24.15385 | 56.04505 | 14184 ft | 357 kts | 284° |
| 2026-05-08 15:14 | 24.16014 | 56.01891 | 13784 ft | 353 kts | 284° |
| 2026-05-08 15:14 | 24.16636 | 55.99306 | 13384 ft | 351 kts | 284° |
| 2026-05-08 15:14 | 24.17256 | 55.96725 | 12984 ft | 349 kts | 284° |
| 2026-05-08 15:15 | 24.17870 | 55.94167 | 12584 ft | 346 kts | 284° |
| 2026-05-08 15:15 | 24.18480 | 55.91625 | 12237 ft | 344 kts | 284° |
| 2026-05-08 15:15 | 24.19085 | 55.89102 | 12136 ft | 342 kts | 284° |
| 2026-05-08 15:15 | 24.19691 | 55.86570 | 12032 ft | 344 kts | 284° |
| 2026-05-08 15:16 | 24.20298 | 55.84037 | 12002 ft | 343 kts | 284° |
| 2026-05-08 15:16 | 24.20903 | 55.81507 | 11957 ft | 344 kts | 284° |
| 2026-05-08 15:16 | 24.21510 | 55.78965 | 11654 ft | 345 kts | 284° |
| 2026-05-08 15:16 | 24.22077 | 55.76432 | 11279 ft | 340 kts | 283° |
| 2026-05-08 15:17 | 24.22603 | 55.73966 | 10907 ft | 336 kts | 283° |
| 2026-05-08 15:17 | 24.23132 | 55.71462 | 10534 ft | 337 kts | 283° |
| 2026-05-08 15:17 | 24.23661 | 55.68977 | 10159 ft | 333 kts | 283° |
| 2026-05-08 15:17 | 24.24191 | 55.66499 | 9779 ft | 327 kts | 283° |
| 2026-05-08 15:18 | 24.24702 | 55.64125 | 9409 ft | 322 kts | 283° |
| 2026-05-08 15:18 | 24.25212 | 55.61757 | 9036 ft | 317 kts | 283° |
| 2026-05-08 15:18 | 24.25716 | 55.59419 | 8657 ft | 313 kts | 283° |
| 2026-05-08 15:18 | 24.26212 | 55.57115 | 8282 ft | 309 kts | 283° |
| 2026-05-08 15:19 | 24.26556 | 55.54817 | 7901 ft | 304 kts | 269° |
| 2026-05-08 15:19 | 24.26417 | 55.52520 | 7514 ft | 300 kts | 265° |
| 2026-05-08 15:19 | 24.26215 | 55.50256 | 7152 ft | 297 kts | 264° |
| 2026-05-08 15:19 | 24.26012 | 55.48019 | 6780 ft | 294 kts | 264° |
| 2026-05-08 15:20 | 24.25821 | 55.45799 | 6404 ft | 291 kts | 265° |
| 2026-05-08 15:20 | 24.25642 | 55.43604 | 6029 ft | 288 kts | 265° |
| 2026-05-08 15:20 | 24.25470 | 55.41427 | 5654 ft | 285 kts | 265° |
| 2026-05-08 15:20 | 24.25303 | 55.39278 | 5395 ft | 278 kts | 265° |
| 2026-05-08 15:21 | 24.25142 | 55.37212 | 5293 ft | 266 kts | 265° |
| 2026-05-08 15:21 | 24.24990 | 55.35240 | 5229 ft | 253 kts | 265° |
| 2026-05-08 15:21 | 24.24845 | 55.33380 | 5220 ft | 237 kts | 265° |
| 2026-05-08 15:21 | 24.24707 | 55.31608 | 5035 ft | 232 kts | 265° |
| 2026-05-08 15:22 | 24.24570 | 55.29840 | 4653 ft | 235 kts | 265° |
| 2026-05-08 15:22 | 24.24429 | 55.28044 | 4256 ft | 239 kts | 265° |
| 2026-05-08 15:22 | 24.24290 | 55.26263 | 4155 ft | 226 kts | 265° |
| 2026-05-08 15:22 | 24.24158 | 55.24578 | 3940 ft | 221 kts | 265° |
| 2026-05-08 15:23 | 24.24026 | 55.22893 | 3549 ft | 224 kts | 265° |
| 2026-05-08 15:23 | 24.23892 | 55.21186 | 3152 ft | 226 kts | 265° |
| 2026-05-08 15:23 | 24.23756 | 55.19461 | 2757 ft | 228 kts | 265° |
| 2026-05-08 15:23 | 24.23619 | 55.17724 | 2420 ft | 227 kts | 265° |
| 2026-05-08 15:24 | 24.23486 | 55.16038 | 2287 ft | 217 kts | 265° |
| 2026-05-08 15:24 | 24.23401 | 55.14966 | 2227 ft | 209 kts | 265° |
| 2026-05-08 15:24 | 24.23280 | 55.13439 | 2251 ft | 192 kts | 265° |
| 2026-05-08 15:24 | 24.23170 | 55.12055 | 2224 ft | 173 kts | 265° |
| 2026-05-08 15:25 | 24.23065 | 55.10733 | 2227 ft | 177 kts | 265° |
| 2026-05-08 15:25 | 24.22961 | 55.09420 | 2242 ft | 170 kts | 265° |
| 2026-05-08 15:25 | 24.22857 | 55.08108 | 2225 ft | 174 kts | 265° |
| 2026-05-08 15:25 | 24.22737 | 55.06791 | 2227 ft | 174 kts | 258° |
| 2026-05-08 15:26 | 24.22098 | 55.05683 | 2204 ft | 175 kts | 229° |
| 2026-05-08 15:26 | 24.21675 | 55.04488 | 2297 ft | 174 kts | 267° |
| 2026-05-08 15:26 | 24.21330 | 55.03232 | 2187 ft | 173 kts | 246° |
| 2026-05-08 15:26 | 24.21294 | 55.01939 | 2263 ft | 174 kts | 282° |
| 2026-05-08 15:27 | 24.21407 | 55.00622 | 2227 ft | 174 kts | 271° |
| 2026-05-08 15:27 | 24.21639 | 54.99329 | 2228 ft | 174 kts | 289° |
| 2026-05-08 15:27 | 24.22204 | 54.98156 | 2232 ft | 174 kts | 302° |
| 2026-05-08 15:27 | 24.22915 | 54.97082 | 2231 ft | 174 kts | 306° |
| 2026-05-08 15:28 | 24.23666 | 54.96040 | 2231 ft | 174 kts | 307° |
| 2026-05-08 15:28 | 24.24417 | 54.94997 | 2229 ft | 174 kts | 307° |
| 2026-05-08 15:28 | 24.25163 | 54.93951 | 2227 ft | 174 kts | 307° |
| 2026-05-08 15:28 | 24.25907 | 54.92903 | 2229 ft | 174 kts | 307° |
| 2026-05-08 15:29 | 24.26652 | 54.91854 | 2227 ft | 174 kts | 307° |
| 2026-05-08 15:29 | 24.27396 | 54.90805 | 2229 ft | 174 kts | 307° |
| 2026-05-08 15:29 | 24.28139 | 54.89758 | 2230 ft | 174 kts | 307° |
| 2026-05-08 15:29 | 24.28884 | 54.88709 | 2231 ft | 174 kts | 307° |
| 2026-05-08 15:30 | 24.29617 | 54.87675 | 2228 ft | 174 kts | 307° |
| 2026-05-08 15:30 | 24.30361 | 54.86626 | 2231 ft | 174 kts | 307° |
| 2026-05-08 15:30 | 24.31105 | 54.85576 | 2230 ft | 174 kts | 307° |
| 2026-05-08 15:30 | 24.31847 | 54.84531 | 2226 ft | 169 kts | 307° |
| 2026-05-08 15:31 | 24.32525 | 54.83575 | 2223 ft | 153 kts | 307° |
| 2026-05-08 15:31 | 24.33178 | 54.82650 | 2236 ft | 153 kts | 307° |
| 2026-05-08 15:31 | 24.33832 | 54.81728 | 2231 ft | 153 kts | 307° |
| 2026-05-08 15:31 | 24.34480 | 54.80805 | 2238 ft | 153 kts | 306° |
| 2026-05-08 15:32 | 24.35116 | 54.79869 | 2161 ft | 153 kts | 306° |
| 2026-05-08 15:32 | 24.35747 | 54.78933 | 2049 ft | 153 kts | 306° |
| 2026-05-08 15:32 | 24.36376 | 54.77999 | 1904 ft | 152 kts | 306° |
| 2026-05-08 15:32 | 24.37016 | 54.77081 | 1802 ft | 152 kts | 307° |
| 2026-05-08 15:33 | 24.37676 | 54.76178 | 1682 ft | 151 kts | 308° |
| 2026-05-08 15:33 | 24.38336 | 54.75278 | 1561 ft | 151 kts | 308° |
| 2026-05-08 15:33 | 24.39007 | 54.74391 | 1419 ft | 151 kts | 309° |
| 2026-05-08 15:33 | 24.39644 | 54.73481 | 1301 ft | 149 kts | 305° |
| 2026-05-08 15:34 | 24.40246 | 54.72598 | 1169 ft | 142 kts | 307° |
| 2026-05-08 15:34 | 24.40857 | 54.71757 | 1058 ft | 141 kts | 308° |
| 2026-05-08 15:34 | 24.41466 | 54.70908 | 914 ft | 141 kts | 307° |
| 2026-05-08 15:34 | 24.42060 | 54.70053 | 741 ft | 140 kts | 307° |
| 2026-05-08 15:35 | 24.42663 | 54.69214 | 622 ft | 140 kts | 308° |
| 2026-05-08 15:35 | 24.43270 | 54.68374 | 432 ft | 141 kts | 307° |
| 2026-05-08 15:35 | 24.43870 | 54.67530 | 241 ft | 139 kts | 307° |
| 2026-05-08 15:35 | 24.44467 | 54.66692 | 91 ft | 137 kts | 308° |
| 2026-05-08 15:36 | 24.44989 | 54.65963 | 70 ft | 100 kts | 308° |
| 2026-05-08 15:36 | 24.45324 | 54.65488 | 76 ft | 60 kts | 308° |
| 2026-05-08 15:36 | 24.45487 | 54.65269 | 74 ft | 7 kts | 310° |
| 2026-05-08 15:36 | 24.45506 | 54.65244 | 74 ft | 16 kts | 310° |
| 2026-05-08 15:37 | 24.45585 | 54.65118 | 67 ft | 18 kts | 295° |
| 2026-05-08 15:37 | 24.45621 | 54.65026 | 64 ft | 13 kts | 288° |
| 2026-05-08 15:37 | 24.45645 | 54.64914 | 71 ft | 16 kts | 278° |
| 2026-05-08 15:37 | 24.45649 | 54.64878 | 65 ft | 0 kts | 277° |
| 2026-05-08 15:39 | 24.45650 | 54.64878 | 65 ft | 1 kts | 277° |
| 2026-05-08 15:40 | 24.45653 | 54.64848 | 69 ft | 6 kts | 278° |
| 2026-05-08 15:40 | 24.45660 | 54.64793 | 72 ft | 6 kts | 276° |
| 2026-05-08 15:40 | 24.45666 | 54.64744 | 66 ft | 8 kts | 281° |
| 2026-05-08 15:40 | 24.45694 | 54.64672 | 74 ft | 12 kts | 304° |
| 2026-05-08 15:41 | 24.45695 | 54.64594 | 72 ft | 7 kts | 224° |
| 2026-05-08 15:41 | 24.45646 | 54.64565 | 71 ft | 8 kts | 214° |
| 2026-05-08 15:41 | 24.45597 | 54.64514 | 70 ft | 10 kts | 221° |
| 2026-05-08 15:41 | 24.45548 | 54.64472 | 67 ft | 8 kts | 217° |
| 2026-05-08 15:42 | 24.45510 | 54.64440 | 67 ft | 6 kts | 217° |
| 2026-05-08 15:42 | 24.45482 | 54.64417 | 73 ft | 4 kts | 217° |
| 2026-05-08 15:42 | 24.45469 | 54.64406 | 64 ft | 4 kts | 217° |
| 2026-05-08 15:42 | 24.45439 | 54.64381 | 64 ft | 6 kts | 215° |
| 2026-05-08 15:43 | 24.45401 | 54.64369 | 73 ft | 6 kts | 178° |
| 2026-05-08 15:43 | 24.45371 | 54.64396 | 66 ft | 6 kts | 131° |
| 2026-05-08 15:43 | 24.45340 | 54.64426 | 72 ft | 6 kts | 160° |
| 2026-05-08 15:43 | 24.45300 | 54.64408 | 68 ft | 8 kts | 241° |
| 2026-05-08 15:44 | 24.45272 | 54.64355 | 74 ft | 0 kts | 239° |